sensor_id;sensor_type;location;lat;lon;timestamp;P1;durP1;ratioP1;P2;durP2;ratioP2
37047;SDS011;23227;48.780;9.210;2023-09-18T00:01:13;1.75;;;1.60;;
37047;SDS011;23227;48.780;9.210;2023-09-18T00:07:18;3.70;;;1.77;;
37047;SDS011;23227;48.780;9.210;2023-09-18T00:10:22;4.90;;;1.98;;
37047;SDS011;23227;48.780;9.210;2023-09-18T00:13:24;3.00;;;1.77;;
37047;SDS011;23227;48.780;9.210;2023-09-18T00:16:27;6.55;;;2.00;;
37047;SDS011;23227;48.780;9.210;2023-09-18T00:19:34;3.85;;;2.00;;
37047;SDS011;23227;48.780;9.210;2023-09-18T00:22:36;1.80;;;1.60;;
37047;SDS011;23227;48.780;9.210;2023-09-18T00:25:40;1.67;;;1.50;;
37047;SDS011;23227;48.780;9.210;2023-09-18T00:28:43;2.28;;;1.70;;
37047;SDS011;23227;48.780;9.210;2023-09-18T00:34:49;2.00;;;1.67;;
37047;SDS011;23227;48.780;9.210;2023-09-18T00:40:55;3.40;;;2.13;;
37047;SDS011;23227;48.780;9.210;2023-09-18T00:43:58;3.05;;;2.00;;
37047;SDS011;23227;48.780;9.210;2023-09-18T00:47:00;9.68;;;2.45;;
37047;SDS011;23227;48.780;9.210;2023-09-18T00:50:03;2.63;;;1.90;;
37047;SDS011;23227;48.780;9.210;2023-09-18T00:53:07;2.30;;;2.00;;
37047;SDS011;23227;48.780;9.210;2023-09-18T00:56:11;2.10;;;1.85;;
37047;SDS011;23227;48.780;9.210;2023-09-18T00:59:14;2.95;;;1.73;;
37047;SDS011;23227;48.780;9.210;2023-09-18T01:02:17;2.25;;;1.75;;
37047;SDS011;23227;48.780;9.210;2023-09-18T01:05:22;4.90;;;1.70;;
37047;SDS011;23227;48.780;9.210;2023-09-18T01:08:24;2.50;;;1.77;;
37047;SDS011;23227;48.780;9.210;2023-09-18T01:11:30;1.77;;;1.45;;
37047;SDS011;23227;48.780;9.210;2023-09-18T01:14:37;4.55;;;1.98;;
37047;SDS011;23227;48.780;9.210;2023-09-18T01:17:43;2.88;;;1.52;;
37047;SDS011;23227;48.780;9.210;2023-09-18T01:20:47;3.28;;;1.75;;
37047;SDS011;23227;48.780;9.210;2023-09-18T01:23:51;7.15;;;1.80;;
37047;SDS011;23227;48.780;9.210;2023-09-18T01:26:53;5.25;;;1.67;;
37047;SDS011;23227;48.780;9.210;2023-09-18T01:29:56;2.58;;;1.60;;
37047;SDS011;23227;48.780;9.210;2023-09-18T01:32:58;1.92;;;1.70;;
37047;SDS011;23227;48.780;9.210;2023-09-18T01:39:05;1.80;;;1.60;;
37047;SDS011;23227;48.780;9.210;2023-09-18T01:42:11;4.80;;;2.00;;
37047;SDS011;23227;48.780;9.210;2023-09-18T01:45:13;2.13;;;1.73;;
37047;SDS011;23227;48.780;9.210;2023-09-18T01:48:16;3.13;;;1.80;;
37047;SDS011;23227;48.780;9.210;2023-09-18T01:51:19;3.65;;;2.28;;
37047;SDS011;23227;48.780;9.210;2023-09-18T01:54:23;3.65;;;1.80;;
37047;SDS011;23227;48.780;9.210;2023-09-18T01:57:25;3.40;;;2.13;;
37047;SDS011;23227;48.780;9.210;2023-09-18T02:00:28;2.25;;;1.63;;
37047;SDS011;23227;48.780;9.210;2023-09-18T02:03:31;2.80;;;1.98;;
37047;SDS011;23227;48.780;9.210;2023-09-18T02:06:54;2.42;;;1.90;;
37047;SDS011;23227;48.780;9.210;2023-09-18T02:13:00;6.28;;;1.75;;
37047;SDS011;23227;48.780;9.210;2023-09-18T02:16:03;2.25;;;1.45;;
37047;SDS011;23227;48.780;9.210;2023-09-18T02:19:06;2.92;;;1.63;;
37047;SDS011;23227;48.780;9.210;2023-09-18T02:22:33;5.25;;;1.70;;
37047;SDS011;23227;48.780;9.210;2023-09-18T02:25:37;6.22;;;1.92;;
37047;SDS011;23227;48.780;9.210;2023-09-18T02:28:41;7.97;;;2.22;;
37047;SDS011;23227;48.780;9.210;2023-09-18T02:31:43;6.00;;;1.75;;
37047;SDS011;23227;48.780;9.210;2023-09-18T02:34:47;4.18;;;1.85;;
37047;SDS011;23227;48.780;9.210;2023-09-18T02:37:49;8.70;;;1.70;;
37047;SDS011;23227;48.780;9.210;2023-09-18T02:40:53;5.32;;;1.52;;
37047;SDS011;23227;48.780;9.210;2023-09-18T02:43:56;5.35;;;1.73;;
37047;SDS011;23227;48.780;9.210;2023-09-18T02:46:58;8.88;;;1.73;;
37047;SDS011;23227;48.780;9.210;2023-09-18T02:50:01;8.95;;;2.05;;
37047;SDS011;23227;48.780;9.210;2023-09-18T02:53:05;4.82;;;1.85;;
37047;SDS011;23227;48.780;9.210;2023-09-18T02:56:10;6.22;;;1.80;;
37047;SDS011;23227;48.780;9.210;2023-09-18T02:59:12;6.57;;;2.05;;
37047;SDS011;23227;48.780;9.210;2023-09-18T03:02:15;5.95;;;1.58;;
37047;SDS011;23227;48.780;9.210;2023-09-18T03:05:17;6.65;;;1.63;;
37047;SDS011;23227;48.780;9.210;2023-09-18T03:08:20;9.77;;;2.30;;
37047;SDS011;23227;48.780;9.210;2023-09-18T03:11:24;18.20;;;2.30;;
37047;SDS011;23227;48.780;9.210;2023-09-18T03:14:28;10.95;;;1.90;;
37047;SDS011;23227;48.780;9.210;2023-09-18T03:17:31;14.27;;;2.10;;
37047;SDS011;23227;48.780;9.210;2023-09-18T03:20:34;7.35;;;1.58;;
37047;SDS011;23227;48.780;9.210;2023-09-18T03:23:37;6.50;;;1.30;;
37047;SDS011;23227;48.780;9.210;2023-09-18T03:26:41;9.32;;;2.53;;
37047;SDS011;23227;48.780;9.210;2023-09-18T03:29:44;7.68;;;1.85;;
37047;SDS011;23227;48.780;9.210;2023-09-18T03:32:46;9.25;;;1.55;;
37047;SDS011;23227;48.780;9.210;2023-09-18T03:35:51;6.72;;;1.85;;
37047;SDS011;23227;48.780;9.210;2023-09-18T03:38:56;12.60;;;2.25;;
37047;SDS011;23227;48.780;9.210;2023-09-18T03:42:00;8.55;;;1.85;;
37047;SDS011;23227;48.780;9.210;2023-09-18T03:45:05;9.40;;;2.17;;
37047;SDS011;23227;48.780;9.210;2023-09-18T03:48:09;6.35;;;1.80;;
37047;SDS011;23227;48.780;9.210;2023-09-18T03:51:12;8.13;;;2.03;;
37047;SDS011;23227;48.780;9.210;2023-09-18T03:54:17;5.50;;;1.73;;
37047;SDS011;23227;48.780;9.210;2023-09-18T03:57:21;4.75;;;1.95;;
37047;SDS011;23227;48.780;9.210;2023-09-18T04:00:24;6.68;;;1.83;;
37047;SDS011;23227;48.780;9.210;2023-09-18T04:03:27;7.57;;;2.45;;
37047;SDS011;23227;48.780;9.210;2023-09-18T04:06:35;6.88;;;1.92;;
37047;SDS011;23227;48.780;9.210;2023-09-18T04:09:38;8.98;;;2.50;;
37047;SDS011;23227;48.780;9.210;2023-09-18T04:12:42;7.55;;;1.95;;
37047;SDS011;23227;48.780;9.210;2023-09-18T04:15:47;12.48;;;2.17;;
37047;SDS011;23227;48.780;9.210;2023-09-18T04:18:49;10.50;;;1.90;;
37047;SDS011;23227;48.780;9.210;2023-09-18T04:21:53;3.97;;;1.80;;
37047;SDS011;23227;48.780;9.210;2023-09-18T04:24:55;12.88;;;1.85;;
37047;SDS011;23227;48.780;9.210;2023-09-18T04:27:59;7.30;;;2.35;;
37047;SDS011;23227;48.780;9.210;2023-09-18T04:31:02;8.15;;;2.42;;
37047;SDS011;23227;48.780;9.210;2023-09-18T04:34:04;10.80;;;2.38;;
37047;SDS011;23227;48.780;9.210;2023-09-18T04:37:07;5.90;;;2.17;;
37047;SDS011;23227;48.780;9.210;2023-09-18T04:40:10;5.95;;;1.67;;
37047;SDS011;23227;48.780;9.210;2023-09-18T04:43:15;13.27;;;2.35;;
37047;SDS011;23227;48.780;9.210;2023-09-18T04:46:17;7.90;;;2.30;;
37047;SDS011;23227;48.780;9.210;2023-09-18T04:49:20;16.15;;;3.00;;
37047;SDS011;23227;48.780;9.210;2023-09-18T04:55:25;10.53;;;2.67;;
37047;SDS011;23227;48.780;9.210;2023-09-18T04:58:29;17.13;;;2.60;;
37047;SDS011;23227;48.780;9.210;2023-09-18T05:01:31;9.38;;;2.63;;
37047;SDS011;23227;48.780;9.210;2023-09-18T05:04:34;10.70;;;2.97;;
37047;SDS011;23227;48.780;9.210;2023-09-18T05:07:37;9.38;;;2.15;;
37047;SDS011;23227;48.780;9.210;2023-09-18T05:10:39;7.75;;;2.63;;
37047;SDS011;23227;48.780;9.210;2023-09-18T05:13:43;9.75;;;2.30;;
37047;SDS011;23227;48.780;9.210;2023-09-18T05:16:46;7.47;;;1.80;;
37047;SDS011;23227;48.780;9.210;2023-09-18T05:19:48;8.25;;;1.75;;
37047;SDS011;23227;48.780;9.210;2023-09-18T05:22:51;6.13;;;1.75;;
37047;SDS011;23227;48.780;9.210;2023-09-18T05:25:55;5.90;;;1.80;;
37047;SDS011;23227;48.780;9.210;2023-09-18T05:28:59;7.22;;;1.73;;
37047;SDS011;23227;48.780;9.210;2023-09-18T05:32:01;10.02;;;2.47;;
37047;SDS011;23227;48.780;9.210;2023-09-18T05:35:05;14.43;;;2.70;;
37047;SDS011;23227;48.780;9.210;2023-09-18T05:38:11;15.38;;;2.05;;
37047;SDS011;23227;48.780;9.210;2023-09-18T05:41:15;13.30;;;2.22;;
37047;SDS011;23227;48.780;9.210;2023-09-18T05:44:19;5.47;;;1.75;;
37047;SDS011;23227;48.780;9.210;2023-09-18T05:47:22;10.32;;;2.00;;
37047;SDS011;23227;48.780;9.210;2023-09-18T05:50:25;7.30;;;2.08;;
37047;SDS011;23227;48.780;9.210;2023-09-18T05:53:30;7.25;;;2.13;;
37047;SDS011;23227;48.780;9.210;2023-09-18T05:56:36;13.60;;;2.20;;
37047;SDS011;23227;48.780;9.210;2023-09-18T05:59:41;11.02;;;1.70;;
37047;SDS011;23227;48.780;9.210;2023-09-18T06:02:45;7.72;;;2.20;;
37047;SDS011;23227;48.780;9.210;2023-09-18T06:08:50;9.82;;;2.20;;
37047;SDS011;23227;48.780;9.210;2023-09-18T06:11:55;6.20;;;2.17;;
37047;SDS011;23227;48.780;9.210;2023-09-18T06:14:59;9.43;;;2.15;;
37047;SDS011;23227;48.780;9.210;2023-09-18T06:18:02;6.05;;;2.00;;
37047;SDS011;23227;48.780;9.210;2023-09-18T06:21:05;9.48;;;1.77;;
37047;SDS011;23227;48.780;9.210;2023-09-18T06:24:08;7.63;;;1.45;;
37047;SDS011;23227;48.780;9.210;2023-09-18T06:27:11;6.20;;;1.70;;
37047;SDS011;23227;48.780;9.210;2023-09-18T06:30:15;7.20;;;1.80;;
37047;SDS011;23227;48.780;9.210;2023-09-18T06:33:17;11.48;;;1.90;;
37047;SDS011;23227;48.780;9.210;2023-09-18T06:36:20;4.85;;;1.77;;
37047;SDS011;23227;48.780;9.210;2023-09-18T06:39:22;7.20;;;2.45;;
37047;SDS011;23227;48.780;9.210;2023-09-18T06:42:28;12.05;;;2.10;;
37047;SDS011;23227;48.780;9.210;2023-09-18T06:45:32;8.70;;;2.63;;
37047;SDS011;23227;48.780;9.210;2023-09-18T06:48:35;5.65;;;2.13;;
37047;SDS011;23227;48.780;9.210;2023-09-18T06:51:37;6.20;;;1.90;;
37047;SDS011;23227;48.780;9.210;2023-09-18T06:54:44;7.00;;;2.05;;
37047;SDS011;23227;48.780;9.210;2023-09-18T06:57:47;9.20;;;2.35;;
37047;SDS011;23227;48.780;9.210;2023-09-18T07:00:53;13.32;;;2.50;;
37047;SDS011;23227;48.780;9.210;2023-09-18T07:03:55;7.57;;;1.88;;
37047;SDS011;23227;48.780;9.210;2023-09-18T07:06:58;8.52;;;2.00;;
37047;SDS011;23227;48.780;9.210;2023-09-18T07:10:03;7.15;;;1.90;;
37047;SDS011;23227;48.780;9.210;2023-09-18T07:13:06;4.82;;;1.67;;
37047;SDS011;23227;48.780;9.210;2023-09-18T07:16:11;5.38;;;1.15;;
37047;SDS011;23227;48.780;9.210;2023-09-18T07:19:14;6.38;;;1.27;;
37047;SDS011;23227;48.780;9.210;2023-09-18T07:22:18;7.88;;;1.35;;
37047;SDS011;23227;48.780;9.210;2023-09-18T07:25:21;5.72;;;1.35;;
37047;SDS011;23227;48.780;9.210;2023-09-18T07:28:24;7.07;;;1.70;;
37047;SDS011;23227;48.780;9.210;2023-09-18T07:31:27;4.00;;;1.17;;
37047;SDS011;23227;48.780;9.210;2023-09-18T07:34:30;3.55;;;1.42;;
37047;SDS011;23227;48.780;9.210;2023-09-18T07:43:39;8.00;;;1.40;;
37047;SDS011;23227;48.780;9.210;2023-09-18T07:46:44;3.75;;;1.23;;
37047;SDS011;23227;48.780;9.210;2023-09-18T07:49:46;5.40;;;1.17;;
37047;SDS011;23227;48.780;9.210;2023-09-18T07:52:50;2.58;;;0.77;;
37047;SDS011;23227;48.780;9.210;2023-09-18T07:55:55;4.90;;;0.95;;
37047;SDS011;23227;48.780;9.210;2023-09-18T07:58:58;6.88;;;1.10;;
37047;SDS011;23227;48.780;9.210;2023-09-18T08:02:02;2.50;;;0.85;;
37047;SDS011;23227;48.780;9.210;2023-09-18T08:05:05;5.10;;;1.20;;
37047;SDS011;23227;48.780;9.210;2023-09-18T08:08:09;4.85;;;1.15;;
37047;SDS011;23227;48.780;9.210;2023-09-18T08:11:12;4.97;;;0.93;;
37047;SDS011;23227;48.780;9.210;2023-09-18T08:14:15;3.50;;;0.82;;
37047;SDS011;23227;48.780;9.210;2023-09-18T08:17:19;4.55;;;0.90;;
37047;SDS011;23227;48.780;9.210;2023-09-18T08:20:22;3.92;;;0.70;;
37047;SDS011;23227;48.780;9.210;2023-09-18T08:26:27;2.67;;;0.80;;
37047;SDS011;23227;48.780;9.210;2023-09-18T08:29:30;5.43;;;1.13;;
37047;SDS011;23227;48.780;9.210;2023-09-18T08:35:36;1.48;;;0.93;;
37047;SDS011;23227;48.780;9.210;2023-09-18T08:38:40;5.03;;;0.80;;
37047;SDS011;23227;48.780;9.210;2023-09-18T08:41:45;1.35;;;0.60;;
37047;SDS011;23227;48.780;9.210;2023-09-18T08:44:52;2.67;;;0.70;;
37047;SDS011;23227;48.780;9.210;2023-09-18T08:47:57;3.35;;;0.60;;
37047;SDS011;23227;48.780;9.210;2023-09-18T08:51:01;3.90;;;1.05;;
37047;SDS011;23227;48.780;9.210;2023-09-18T08:54:05;3.22;;;0.60;;
37047;SDS011;23227;48.780;9.210;2023-09-18T08:57:08;7.65;;;1.42;;
37047;SDS011;23227;48.780;9.210;2023-09-18T09:00:11;3.83;;;0.70;;
37047;SDS011;23227;48.780;9.210;2023-09-18T09:03:19;6.60;;;0.98;;
37047;SDS011;23227;48.780;9.210;2023-09-18T09:06:24;6.25;;;1.00;;
37047;SDS011;23227;48.780;9.210;2023-09-18T09:09:27;3.28;;;0.88;;
37047;SDS011;23227;48.780;9.210;2023-09-18T09:12:46;10.73;;;1.27;;
37047;SDS011;23227;48.780;9.210;2023-09-18T09:15:50;5.45;;;1.00;;
37047;SDS011;23227;48.780;9.210;2023-09-18T09:18:56;6.35;;;1.02;;
37047;SDS011;23227;48.780;9.210;2023-09-18T09:21:59;5.95;;;1.20;;
37047;SDS011;23227;48.780;9.210;2023-09-18T09:25:02;5.90;;;1.50;;
37047;SDS011;23227;48.780;9.210;2023-09-18T09:28:06;2.85;;;0.82;;
37047;SDS011;23227;48.780;9.210;2023-09-18T09:31:10;4.82;;;0.95;;
37047;SDS011;23227;48.780;9.210;2023-09-18T09:34:23;4.75;;;0.88;;
37047;SDS011;23227;48.780;9.210;2023-09-18T09:37:29;4.10;;;0.80;;
37047;SDS011;23227;48.780;9.210;2023-09-18T09:40:32;4.63;;;0.70;;
37047;SDS011;23227;48.780;9.210;2023-09-18T09:43:36;4.30;;;0.77;;
37047;SDS011;23227;48.780;9.210;2023-09-18T09:46:44;7.78;;;1.30;;
37047;SDS011;23227;48.780;9.210;2023-09-18T09:49:49;4.82;;;0.90;;
37047;SDS011;23227;48.780;9.210;2023-09-18T09:52:52;1.58;;;0.98;;
37047;SDS011;23227;48.780;9.210;2023-09-18T09:55:56;1.85;;;0.93;;
37047;SDS011;23227;48.780;9.210;2023-09-18T09:59:02;7.30;;;0.70;;
37047;SDS011;23227;48.780;9.210;2023-09-18T10:02:09;4.63;;;1.25;;
37047;SDS011;23227;48.780;9.210;2023-09-18T10:05:15;4.40;;;1.00;;
37047;SDS011;23227;48.780;9.210;2023-09-18T10:08:21;4.63;;;0.95;;
37047;SDS011;23227;48.780;9.210;2023-09-18T10:11:24;2.58;;;0.90;;
37047;SDS011;23227;48.780;9.210;2023-09-18T10:14:29;3.10;;;0.85;;
37047;SDS011;23227;48.780;9.210;2023-09-18T10:17:47;2.08;;;1.08;;
37047;SDS011;23227;48.780;9.210;2023-09-18T10:20:55;3.65;;;0.80;;
37047;SDS011;23227;48.780;9.210;2023-09-18T10:24:03;5.05;;;0.63;;
37047;SDS011;23227;48.780;9.210;2023-09-18T10:27:08;5.82;;;1.02;;
37047;SDS011;23227;48.780;9.210;2023-09-18T10:30:12;3.35;;;1.00;;
37047;SDS011;23227;48.780;9.210;2023-09-18T10:33:17;1.58;;;0.55;;
37047;SDS011;23227;48.780;9.210;2023-09-18T10:36:21;1.45;;;0.68;;
37047;SDS011;23227;48.780;9.210;2023-09-18T10:39:24;5.35;;;0.93;;
37047;SDS011;23227;48.780;9.210;2023-09-18T10:42:28;5.13;;;0.70;;
37047;SDS011;23227;48.780;9.210;2023-09-18T10:45:32;2.38;;;1.05;;
37047;SDS011;23227;48.780;9.210;2023-09-18T10:48:35;6.68;;;0.82;;
37047;SDS011;23227;48.780;9.210;2023-09-18T10:54:43;2.72;;;0.82;;
37047;SDS011;23227;48.780;9.210;2023-09-18T10:57:49;9.98;;;1.00;;
37047;SDS011;23227;48.780;9.210;2023-09-18T11:00:53;6.13;;;1.48;;
37047;SDS011;23227;48.780;9.210;2023-09-18T11:03:59;2.10;;;0.75;;
37047;SDS011;23227;48.780;9.210;2023-09-18T11:07:04;3.03;;;0.60;;
37047;SDS011;23227;48.780;9.210;2023-09-18T11:13:28;4.28;;;0.95;;
37047;SDS011;23227;48.780;9.210;2023-09-18T11:16:35;2.90;;;0.90;;
37047;SDS011;23227;48.780;9.210;2023-09-18T11:19:40;2.47;;;1.10;;
37047;SDS011;23227;48.780;9.210;2023-09-18T11:22:48;3.42;;;0.85;;
37047;SDS011;23227;48.780;9.210;2023-09-18T11:25:52;1.00;;;0.80;;
37047;SDS011;23227;48.780;9.210;2023-09-18T11:28:55;3.05;;;1.00;;
37047;SDS011;23227;48.780;9.210;2023-09-18T11:31:59;1.63;;;0.75;;
37047;SDS011;23227;48.780;9.210;2023-09-18T11:35:06;3.13;;;0.95;;
37047;SDS011;23227;48.780;9.210;2023-09-18T11:38:13;12.90;;;1.75;;
37047;SDS011;23227;48.780;9.210;2023-09-18T11:41:22;3.47;;;0.90;;
37047;SDS011;23227;48.780;9.210;2023-09-18T11:44:33;5.03;;;1.48;;
37047;SDS011;23227;48.780;9.210;2023-09-18T11:47:42;11.15;;;1.40;;
37047;SDS011;23227;48.780;9.210;2023-09-18T11:50:48;5.10;;;1.40;;
37047;SDS011;23227;48.780;9.210;2023-09-18T11:53:54;6.78;;;1.00;;
37047;SDS011;23227;48.780;9.210;2023-09-18T11:57:02;2.33;;;0.70;;
37047;SDS011;23227;48.780;9.210;2023-09-18T12:00:06;2.58;;;0.70;;
37047;SDS011;23227;48.780;9.210;2023-09-18T12:03:23;2.17;;;0.95;;
37047;SDS011;23227;48.780;9.210;2023-09-18T12:06:29;1.38;;;0.50;;
37047;SDS011;23227;48.780;9.210;2023-09-18T19:05:57;6.75;;;1.35;;
37047;SDS011;23227;48.780;9.210;2023-09-18T19:09:01;9.73;;;1.40;;
37047;SDS011;23227;48.780;9.210;2023-09-18T19:12:05;11.02;;;1.45;;
37047;SDS011;23227;48.780;9.210;2023-09-18T19:15:09;10.30;;;1.20;;
37047;SDS011;23227;48.780;9.210;2023-09-18T19:18:12;7.38;;;1.40;;
37047;SDS011;23227;48.780;9.210;2023-09-18T19:21:16;7.15;;;1.02;;
37047;SDS011;23227;48.780;9.210;2023-09-18T19:24:18;4.72;;;1.00;;
37047;SDS011;23227;48.780;9.210;2023-09-18T19:27:21;4.00;;;1.00;;
37047;SDS011;23227;48.780;9.210;2023-09-18T19:30:24;8.98;;;1.63;;
37047;SDS011;23227;48.780;9.210;2023-09-18T19:33:27;3.88;;;1.08;;
37047;SDS011;23227;48.780;9.210;2023-09-18T19:36:31;3.47;;;1.08;;
37047;SDS011;23227;48.780;9.210;2023-09-18T19:39:34;6.32;;;1.17;;
37047;SDS011;23227;48.780;9.210;2023-09-18T19:45:39;2.50;;;1.10;;
37047;SDS011;23227;48.780;9.210;2023-09-18T19:48:42;2.28;;;1.00;;
37047;SDS011;23227;48.780;9.210;2023-09-18T19:51:46;2.88;;;1.10;;
37047;SDS011;23227;48.780;9.210;2023-09-18T19:54:48;1.80;;;0.80;;
37047;SDS011;23227;48.780;9.210;2023-09-18T19:57:52;3.25;;;1.20;;
37047;SDS011;23227;48.780;9.210;2023-09-18T20:00:54;2.60;;;0.90;;
37047;SDS011;23227;48.780;9.210;2023-09-18T20:10:07;1.63;;;0.75;;
37047;SDS011;23227;48.780;9.210;2023-09-18T20:13:12;2.20;;;0.77;;
37047;SDS011;23227;48.780;9.210;2023-09-18T20:16:14;1.63;;;0.63;;
37047;SDS011;23227;48.780;9.210;2023-09-18T20:19:17;4.78;;;1.08;;
37047;SDS011;23227;48.780;9.210;2023-09-18T20:22:22;3.20;;;0.80;;
37047;SDS011;23227;48.780;9.210;2023-09-18T20:25:25;1.45;;;0.80;;
37047;SDS011;23227;48.780;9.210;2023-09-18T20:28:28;6.32;;;0.70;;
37047;SDS011;23227;48.780;9.210;2023-09-18T20:31:31;5.78;;;0.80;;
37047;SDS011;23227;48.780;9.210;2023-09-18T20:34:34;2.88;;;0.80;;
37047;SDS011;23227;48.780;9.210;2023-09-18T20:37:38;3.25;;;0.90;;
37047;SDS011;23227;48.780;9.210;2023-09-18T20:40:40;1.63;;;0.60;;
37047;SDS011;23227;48.780;9.210;2023-09-18T20:43:44;1.55;;;0.90;;
37047;SDS011;23227;48.780;9.210;2023-09-18T20:46:47;2.53;;;0.70;;
37047;SDS011;23227;48.780;9.210;2023-09-18T20:49:51;1.90;;;0.60;;
37047;SDS011;23227;48.780;9.210;2023-09-18T20:52:56;1.42;;;0.63;;
37047;SDS011;23227;48.780;9.210;2023-09-18T20:55:58;2.17;;;0.50;;
37047;SDS011;23227;48.780;9.210;2023-09-18T20:59:02;1.60;;;1.00;;
37047;SDS011;23227;48.780;9.210;2023-09-18T21:02:06;1.50;;;0.73;;
37047;SDS011;23227;48.780;9.210;2023-09-18T21:05:11;1.20;;;0.70;;
37047;SDS011;23227;48.780;9.210;2023-09-18T21:08:16;1.63;;;0.65;;
37047;SDS011;23227;48.780;9.210;2023-09-18T21:11:18;5.07;;;1.10;;
37047;SDS011;23227;48.780;9.210;2023-09-18T21:14:21;3.63;;;0.85;;
37047;SDS011;23227;48.780;9.210;2023-09-18T21:17:24;0.82;;;0.57;;
37047;SDS011;23227;48.780;9.210;2023-09-18T21:23:31;3.80;;;1.15;;
37047;SDS011;23227;48.780;9.210;2023-09-18T21:26:33;5.97;;;0.70;;
37047;SDS011;23227;48.780;9.210;2023-09-18T21:29:36;4.38;;;0.80;;
37047;SDS011;23227;48.780;9.210;2023-09-18T21:32:38;1.05;;;0.75;;
37047;SDS011;23227;48.780;9.210;2023-09-18T21:38:45;3.30;;;0.82;;
37047;SDS011;23227;48.780;9.210;2023-09-18T21:41:49;1.45;;;0.50;;
37047;SDS011;23227;48.780;9.210;2023-09-18T21:44:52;1.63;;;0.50;;
37047;SDS011;23227;48.780;9.210;2023-09-18T21:47:54;3.72;;;0.43;;
37047;SDS011;23227;48.780;9.210;2023-09-18T21:54:02;0.90;;;0.50;;
37047;SDS011;23227;48.780;9.210;2023-09-18T21:57:05;2.33;;;0.50;;
37047;SDS011;23227;48.780;9.210;2023-09-18T22:00:08;4.32;;;0.82;;
37047;SDS011;23227;48.780;9.210;2023-09-18T22:03:29;3.45;;;0.63;;
37047;SDS011;23227;48.780;9.210;2023-09-18T22:06:38;1.60;;;0.95;;
37047;SDS011;23227;48.780;9.210;2023-09-18T22:09:42;0.98;;;0.50;;
37047;SDS011;23227;48.780;9.210;2023-09-18T22:12:47;3.05;;;0.82;;
37047;SDS011;23227;48.780;9.210;2023-09-18T22:15:50;1.35;;;0.63;;
37047;SDS011;23227;48.780;9.210;2023-09-18T22:18:52;2.40;;;0.55;;
37047;SDS011;23227;48.780;9.210;2023-09-18T22:21:55;1.42;;;0.65;;
37047;SDS011;23227;48.780;9.210;2023-09-18T22:24:59;2.10;;;0.60;;
37047;SDS011;23227;48.780;9.210;2023-09-18T22:28:02;0.80;;;0.40;;
37047;SDS011;23227;48.780;9.210;2023-09-18T22:31:05;0.55;;;0.38;;
37047;SDS011;23227;48.780;9.210;2023-09-18T22:34:09;0.95;;;0.50;;
37047;SDS011;23227;48.780;9.210;2023-09-18T22:37:11;0.50;;;0.50;;
37047;SDS011;23227;48.780;9.210;2023-09-18T22:57:21;3.75;;;0.65;;
37047;SDS011;23227;48.780;9.210;2023-09-18T23:00:26;1.25;;;0.52;;
37047;SDS011;23227;48.780;9.210;2023-09-18T23:03:30;0.60;;;0.40;;
37047;SDS011;23227;48.780;9.210;2023-09-18T23:06:33;2.25;;;0.70;;
37047;SDS011;23227;48.780;9.210;2023-09-18T23:09:36;2.67;;;0.82;;
37047;SDS011;23227;48.780;9.210;2023-09-18T23:12:40;0.63;;;0.50;;
37047;SDS011;23227;48.780;9.210;2023-09-18T23:15:43;0.70;;;0.60;;
37047;SDS011;23227;48.780;9.210;2023-09-18T23:18:48;1.13;;;0.40;;
37047;SDS011;23227;48.780;9.210;2023-09-18T23:21:52;2.85;;;0.68;;
37047;SDS011;23227;48.780;9.210;2023-09-18T23:24:55;0.63;;;0.45;;
37047;SDS011;23227;48.780;9.210;2023-09-18T23:27:59;2.85;;;0.57;;
37047;SDS011;23227;48.780;9.210;2023-09-18T23:31:04;0.93;;;0.60;;
37047;SDS011;23227;48.780;9.210;2023-09-18T23:34:07;2.15;;;0.63;;
37047;SDS011;23227;48.780;9.210;2023-09-18T23:37:13;1.52;;;0.77;;
37047;SDS011;23227;48.780;9.210;2023-09-18T23:40:15;2.75;;;0.60;;
37047;SDS011;23227;48.780;9.210;2023-09-18T23:43:20;1.38;;;0.60;;
37047;SDS011;23227;48.780;9.210;2023-09-18T23:46:25;0.75;;;0.50;;
37047;SDS011;23227;48.780;9.210;2023-09-18T23:49:29;0.85;;;0.60;;
37047;SDS011;23227;48.780;9.210;2023-09-18T23:52:33;0.90;;;0.65;;
37047;SDS011;23227;48.780;9.210;2023-09-18T23:55:35;2.88;;;0.77;;
37047;SDS011;23227;48.780;9.210;2023-09-18T23:58:40;0.70;;;0.50;;
